Time;durP1;ratioP1;P1;durP2;ratioP2;P2;SDS_P1;SDS_P2;PMS_P1;PMS_P2;Temp;Humidity;BMP_temperature;BMP_pressure;BME280_temperature;BME280_humidity;BME280_pressure;Samples;Min_cycle;Max_cycle;Signal;HPM_P1;HPM_P2
2022/07/31 00:02:08;;;;;;;4.35;4.05;;;;;;;24.34;70.43;99073.75;5069156;28;20438;-66
2022/07/31 00:04:35;;;;;;;4.30;3.90;;;;;;;24.23;69.25;99031.44;5069748;28;20686;-67
2022/07/31 00:07:02;;;;;;;6.13;4.27;;;;;;;24.32;69.67;99049.34;5069920;28;20191;-66
2022/07/31 00:09:29;;;;;;;4.30;4.00;;;;;;;24.38;70.71;99073.56;5069746;28;20210;-66
2022/07/31 00:11:56;;;;;;;5.70;4.70;;;;;;;24.32;71.85;99081.72;5069802;28;20199;-66
2022/07/31 00:14:23;;;;;;;4.67;4.30;;;;;;;24.37;71.71;99094.63;5069713;28;20195;-66
2022/07/31 00:16:50;;;;;;;4.63;4.30;;;;;;;24.48;71.46;99093.22;5069947;28;20199;-66
2022/07/31 00:19:18;;;;;;;5.00;4.60;;;;;;;24.51;70.72;99087.81;5069570;28;20195;-66
2022/07/31 00:21:45;;;;;;;5.00;4.53;;;;;;;24.59;69.75;99095.34;5069669;28;20195;-66
2022/07/31 00:24:13;;;;;;;6.40;4.30;;;;;;;24.61;70.62;99096.16;5069777;28;20196;-65
2022/07/31 00:26:40;;;;;;;5.37;4.83;;;;;;;24.59;71.05;99100.59;5069607;28;20203;-67
2022/07/31 00:29:06;;;;;;;5.17;4.77;;;;;;;24.58;71.78;99107.63;5069401;28;20215;-65
2022/07/31 00:31:33;;;;;;;5.03;4.63;;;;;;;24.57;72.97;99116.44;5069777;28;20270;-65
2022/07/31 00:34:00;;;;;;;4.43;3.77;;;;;;;24.58;73.46;99102.38;5069547;28;20192;-65
2022/07/31 00:36:28;;;;;;;4.47;4.17;;;;;;;24.49;72.50;99115.09;5069684;28;20195;-65
2022/07/31 00:38:55;;;;;;;5.00;4.50;;;;;;;24.43;72.92;99105.72;5069764;28;20237;-65
2022/07/31 00:41:22;;;;;;;5.00;4.50;;;;;;;24.43;73.63;99112.75;5069676;28;20192;-65
2022/07/31 00:43:49;;;;;;;5.97;4.80;;;;;;;24.35;74.40;99102.59;5069652;28;20187;-65
2022/07/31 00:46:15;;;;;;;4.60;4.20;;;;;;;24.42;75.20;99103.19;5069489;28;20195;-65
2022/07/31 00:48:42;;;;;;;4.90;4.40;;;;;;;24.40;74.40;99099.75;5069453;28;20210;-65
2022/07/31 00:51:09;;;;;;;5.20;4.60;;;;;;;24.33;75.77;99108.84;5069343;28;20191;-66
2022/07/31 00:53:37;;;;;;;5.10;4.60;;;;;;;24.30;76.00;99114.22;5069427;28;20682;-65
2022/07/31 00:56:05;;;;;;;5.40;5.00;;;;;;;24.22;76.16;99121.59;5072034;28;20184;-67
2022/07/31 00:58:31;;;;;;;5.80;5.20;;;;;;;24.10;75.70;99114.28;5072969;28;20292;-65
2022/07/31 01:00:58;;;;;;;6.23;5.17;;;;;;;24.07;77.15;99109.97;5073133;28;20192;-66
2022/07/31 01:03:25;;;;;;;5.40;4.93;;;;;;;24.13;76.40;99106.25;5072486;28;20434;-67
2022/07/31 01:05:52;;;;;;;5.20;4.77;;;;;;;24.12;76.28;99104.56;5072947;28;20195;-65
2022/07/31 01:08:19;;;;;;;6.13;5.13;;;;;;;24.02;76.26;99104.94;5072961;28;20191;-65
2022/07/31 01:10:56;;;;;;;6.67;5.80;;;;;;;24.04;75.93;99112.72;5072778;28;20230;-65
2022/07/31 01:13:31;;;;;;;5.77;5.27;;;;;;;23.98;76.66;99128.78;5073045;28;20202;-65
2022/07/31 01:15:59;;;;;;;6.30;5.63;;;;;;;23.86;77.11;99119.66;5072895;28;20195;-65
2022/07/31 01:18:29;;;;;;;5.20;4.70;;;;;;;23.80;75.96;99113.81;5072767;28;20199;-65
2022/07/31 01:21:00;;;;;;;5.03;4.53;;;;;;;23.81;76.88;99120.78;5072749;28;20191;-67
2022/07/31 01:23:59;;;;;;;5.63;5.10;;;;;;;23.78;75.79;99116.53;5072877;28;20175;-66
2022/07/31 01:26:38;;;;;;;5.13;4.60;;;;;;;23.80;75.07;99119.91;5070270;28;20195;-65
2022/07/31 01:29:14;;;;;;;5.07;4.57;;;;;;;23.79;74.62;99122.59;5072660;28;20191;-66
2022/07/31 01:31:52;;;;;;;5.83;5.33;;;;;;;23.76;74.77;99107.84;5072571;28;20199;-66
2022/07/31 01:34:25;;;;;;;5.27;4.87;;;;;;;23.84;74.87;99118.84;5072478;28;20282;-67
2022/07/31 01:37:02;;;;;;;5.27;4.87;;;;;;;23.85;75.52;99109.22;5072873;28;20557;-59
2022/07/31 01:39:33;;;;;;;6.17;5.57;;;;;;;23.65;77.17;99109.25;5072391;28;20223;-59
2022/07/31 01:42:03;;;;;;;7.43;6.35;;;;;;;23.47;78.87;99111.72;5071716;28;20442;-59
2022/07/31 01:44:36;;;;;;;5.73;5.23;;;;;;;23.43;80.00;99111.94;5072300;28;20195;-59
2022/07/31 01:47:04;;;;;;;8.57;5.97;;;;;;;23.39;80.65;99098.09;5072788;28;20191;-60
2022/07/31 01:49:32;;;;;;;7.17;6.57;;;;;;;23.29;81.08;99093.25;5072297;28;20220;-59
2022/07/31 01:52:00;;;;;;;8.30;6.63;;;;;;;23.16;82.08;99095.50;5072338;28;20245;-59
2022/07/31 01:54:29;;;;;;;8.27;7.57;;;;;;;23.06;82.63;99103.81;5071992;28;20194;-59
2022/07/31 01:56:58;;;;;;;7.87;7.27;;;;;;;23.05;83.25;99096.84;5072300;28;20605;-59
2022/07/31 01:59:26;;;;;;;7.33;6.63;;;;;;;23.04;83.23;99096.03;5072236;28;20192;-59
2022/07/31 02:01:55;;;;;;;7.60;6.90;;;;;;;22.91;83.52;99098.28;5072008;28;20203;-59
2022/07/31 02:04:24;;;;;;;8.73;7.82;;;;;;;22.90;84.15;99103.59;5071814;28;20438;-59
2022/07/31 02:06:52;;;;;;;8.97;8.07;;;;;;;22.82;84.98;99103.91;5071442;28;20562;-59
2022/07/31 02:09:20;;;;;;;8.67;7.77;;;;;;;22.78;85.48;99104.91;5071861;28;20654;-59
2022/07/31 02:11:48;;;;;;;8.60;7.73;;;;;;;22.71;86.07;99118.31;5071953;28;20195;-59
2022/07/31 02:14:18;;;;;;;8.40;7.70;;;;;;;22.66;86.50;99113.25;5072049;28;20195;-59
2022/07/31 02:16:47;;;;;;;8.87;8.07;;;;;;;22.63;86.35;99100.28;5072100;28;20758;-59
2022/07/31 02:19:16;;;;;;;8.67;7.77;;;;;;;22.64;86.10;99103.75;5071864;28;20206;-59
2022/07/31 02:21:43;;;;;;;7.53;6.93;;;;;;;22.58;85.36;99104.78;5072017;28;20184;-59
2022/07/31 02:24:10;;;;;;;9.23;7.27;;;;;;;22.65;84.92;99108.06;5071469;28;20196;-59
2022/07/31 02:26:40;;;;;;;8.33;6.60;;;;;;;22.61;84.66;99115.16;5071659;28;20195;-60
2022/07/31 02:29:11;;;;;;;7.90;7.10;;;;;;;22.62;84.35;99111.63;5071329;28;20195;-60
2022/07/31 02:31:39;;;;;;;7.90;7.03;;;;;;;22.56;84.35;99104.00;5071483;28;20191;-60
2022/07/31 02:34:06;;;;;;;8.03;6.87;;;;;;;22.54;84.34;99100.59;5071305;28;20196;-60
2022/07/31 02:36:35;;;;;;;7.60;6.90;;;;;;;22.53;84.25;99105.88;5071252;28;20540;-59
2022/07/31 02:39:03;;;;;;;8.23;7.20;;;;;;;22.53;84.27;99105.88;5071364;28;20202;-59
2022/07/31 02:41:30;;;;;;;9.77;7.40;;;;;;;22.49;84.71;99113.03;5071079;28;20278;-59
2022/07/31 02:43:58;;;;;;;9.23;7.85;;;;;;;22.49;84.88;99102.56;5070634;28;20437;-59
2022/07/31 02:46:26;;;;;;;8.00;7.20;;;;;;;22.57;84.23;99110.97;5070984;28;20198;-59
2022/07/31 02:48:54;;;;;;;8.07;7.27;;;;;;;22.48;83.89;99106.06;5070951;28;20196;-59
2022/07/31 02:51:22;;;;;;;7.57;6.70;;;;;;;22.46;84.04;99096.56;5071042;28;20225;-59
2022/07/31 02:53:50;;;;;;;7.07;6.40;;;;;;;22.48;83.60;99103.47;5070989;28;20203;-59
2022/07/31 02:56:18;;;;;;;9.67;6.70;;;;;;;22.48;83.17;99105.22;5070886;28;20666;-59
2022/07/31 02:58:44;;;;;;;8.73;7.07;;;;;;;22.49;83.73;99105.16;5070774;28;20224;-59
2022/07/31 03:01:13;;;;;;;9.17;6.20;;;;;;;22.51;83.45;99111.19;5070621;28;20226;-59
2022/07/31 03:03:39;;;;;;;8.33;6.43;;;;;;;22.50;82.89;99104.25;5071416;28;20196;-59
2022/07/31 03:06:06;;;;;;;6.93;6.13;;;;;;;22.54;82.44;99100.59;5071011;28;20191;-60
2022/07/31 03:08:33;;;;;;;6.23;5.63;;;;;;;22.52;82.30;99112.91;5071081;28;20195;-59
2022/07/31 03:11:01;;;;;;;6.67;5.97;;;;;;;22.51;82.37;99108.56;5070699;28;20219;-59
2022/07/31 03:13:30;;;;;;;6.57;6.07;;;;;;;22.52;82.15;99112.91;5071285;28;20246;-59
2022/07/31 03:15:58;;;;;;;7.30;5.87;;;;;;;22.57;81.80;99115.34;5070779;28;20196;-59
2022/07/31 03:18:26;;;;;;;7.37;6.27;;;;;;;22.57;81.43;99113.59;5069811;28;20230;-59
2022/07/31 03:20:54;;;;;;;6.80;6.10;;;;;;;22.54;81.53;99113.69;5070527;28;20191;-59
2022/07/31 03:23:23;;;;;;;6.73;6.03;;;;;;;22.51;81.38;99112.94;5070486;28;20192;-60
2022/07/31 03:25:52;;;;;;;6.07;5.57;;;;;;;22.53;81.42;99114.59;5070493;28;20196;-59
2022/07/31 03:28:21;;;;;;;8.23;6.20;;;;;;;22.55;81.46;99118.00;5070465;28;20191;-59
2022/07/31 03:30:51;;;;;;;6.70;6.10;;;;;;;22.54;80.77;99108.47;5070213;28;20705;-59
2022/07/31 03:33:18;;;;;;;7.90;6.00;;;;;;;22.57;81.05;99108.34;5070449;28;20191;-59
2022/07/31 03:35:45;;;;;;;7.53;6.40;;;;;;;22.58;80.58;99098.72;5070400;28;20199;-59
2022/07/31 03:38:12;;;;;;;7.03;6.43;;;;;;;22.63;80.21;99110.78;5070200;28;20582;-59
2022/07/31 03:40:38;;;;;;;7.13;6.23;;;;;;;22.63;79.80;99107.25;5070170;28;20188;-59
2022/07/31 03:43:06;;;;;;;6.60;6.00;;;;;;;22.66;79.85;99109.78;5070241;28;20196;-59
2022/07/31 03:45:37;;;;;;;6.20;5.60;;;;;;;22.71;79.10;99110.47;5070539;28;20464;-59
2022/07/31 03:48:07;;;;;;;5.80;5.03;;;;;;;22.69;78.68;99110.50;5070286;28;20199;-59
2022/07/31 03:50:34;;;;;;;6.57;5.47;;;;;;;22.81;78.08;99124.91;5070499;28;20278;-59
2022/07/31 03:53:01;;;;;;;5.87;5.27;;;;;;;22.92;78.02;99126.19;5070489;28;20976;-59
2022/07/31 03:55:29;;;;;;;5.43;4.90;;;;;;;22.98;77.40;99119.00;5070189;28;20195;-59
2022/07/31 03:57:56;;;;;;;5.40;4.97;;;;;;;23.01;77.06;99117.13;5070275;28;20618;-59
2022/07/31 04:00:26;;;;;;;6.37;5.70;;;;;;;23.04;76.74;99122.25;5070430;28;20203;-59
2022/07/31 04:02:55;;;;;;;6.30;5.80;;;;;;;23.09;77.37;99128.16;5069983;28;20634;-60
2022/07/31 04:05:22;;;;;;;6.73;6.10;;;;;;;23.17;76.99;99114.72;5069815;28;20253;-59
2022/07/31 04:07:48;;;;;;;6.50;5.90;;;;;;;23.25;76.87;99116.13;5069947;28;20245;-59
2022/07/31 04:10:15;;;;;;;6.45;5.82;;;;;;;23.35;76.21;99129.69;5069001;28;20449;-59
2022/07/31 04:12:42;;;;;;;7.57;5.20;;;;;;;23.50;73.47;99121.22;5070017;28;20192;-61
2022/07/31 04:15:10;;;;;;;7.13;5.00;;;;;;;23.54;72.38;99117.53;5069783;28;20199;-59
2022/07/31 04:17:36;;;;;;;5.57;5.07;;;;;;;23.48;72.86;99112.56;5069654;28;20203;-60
2022/07/31 04:20:06;;;;;;;5.70;4.80;;;;;;;23.60;72.70;99117.28;5069781;28;20191;-59
2022/07/31 04:22:33;;;;;;;5.83;5.03;;;;;;;23.54;72.41;99111.47;5069718;28;20651;-59
2022/07/31 04:25:00;;;;;;;7.07;5.80;;;;;;;23.56;72.71;99115.72;5069605;28;20619;-60
2022/07/31 04:27:26;;;;;;;5.97;5.13;;;;;;;23.55;73.19;99108.75;5069856;28;20191;-60
2022/07/31 04:29:53;;;;;;;5.67;5.17;;;;;;;23.66;72.83;99105.69;5071971;28;20192;-59
2022/07/31 04:32:20;;;;;;;6.37;5.73;;;;;;;23.73;72.30;99108.00;5073613;28;20735;-59
2022/07/31 04:34:47;;;;;;;6.60;5.90;;;;;;;23.79;72.20;99106.84;5073383;28;20192;-60
2022/07/31 04:37:15;;;;;;;6.07;5.57;;;;;;;23.89;72.58;99109.03;5073602;28;20187;-60
2022/07/31 04:39:42;;;;;;;9.70;5.63;;;;;;;23.94;70.35;99114.06;5073524;28;20214;-60
2022/07/31 04:42:09;;;;;;;7.33;5.73;;;;;;;23.97;70.85;99106.91;5073564;28;20188;-60
2022/07/31 04:44:36;;;;;;;7.43;6.10;;;;;;;24.04;70.81;99112.72;5073561;28;20194;-60
2022/07/31 04:47:05;;;;;;;7.40;5.47;;;;;;;24.03;69.95;99117.13;5073490;28;20202;-60
2022/07/31 04:49:33;;;;;;;6.50;5.90;;;;;;;24.07;70.36;99120.47;5072265;28;20421;-60
2022/07/31 04:52:00;;;;;;;8.10;5.10;;;;;;;24.13;69.47;99112.38;5073157;28;20216;-60
2022/07/31 04:54:28;;;;;;;7.17;5.47;;;;;;;24.23;69.28;99111.03;5073121;28;20680;-60
2022/07/31 04:56:55;;;;;;;6.83;5.90;;;;;;;24.34;69.37;99115.78;5073223;28;20326;-60
2022/07/31 04:59:23;;;;;;;6.30;5.70;;;;;;;24.35;68.84;99118.34;5072984;28;20236;-60
2022/07/31 05:01:50;;;;;;;5.80;5.13;;;;;;;24.37;68.79;99124.38;5072924;28;20187;-60
2022/07/31 05:04:18;;;;;;;7.63;6.57;;;;;;;24.34;68.41;99116.63;5072946;28;20196;-60
2022/07/31 05:06:48;;;;;;;6.97;5.33;;;;;;;24.37;68.24;99129.63;5073003;28;20191;-60
2022/07/31 05:09:17;;;;;;;6.47;5.87;;;;;;;24.39;68.78;99126.97;5073028;28;20192;-60
2022/07/31 05:11:46;;;;;;;7.00;6.30;;;;;;;24.52;69.25;99135.97;5072268;28;20932;-60
2022/07/31 05:14:14;;;;;;;8.17;5.60;;;;;;;24.65;67.47;99135.34;5072979;28;20187;-60
2022/07/31 05:16:41;;;;;;;5.37;4.87;;;;;;;24.73;66.78;99137.59;5072894;28;20231;-58
2022/07/31 05:19:08;;;;;;;5.67;5.00;;;;;;;24.73;65.93;99137.59;5073009;28;20202;-59
2022/07/31 05:21:34;;;;;;;5.47;4.97;;;;;;;24.77;66.67;99125.16;5073172;28;20238;-59
2022/07/31 05:24:02;;;;;;;5.60;5.10;;;;;;;24.63;65.71;99089.03;5072845;28;20619;-59
2022/07/31 05:26:30;;;;;;;5.93;5.27;;;;;;;24.84;65.03;99122.22;5072926;28;20200;-59
2022/07/31 05:29:00;;;;;;;5.80;5.30;;;;;;;24.79;65.86;99115.44;5072391;28;20191;-59
2022/07/31 05:31:27;;;;;;;5.53;4.93;;;;;;;24.84;65.18;99114.31;5072448;28;20229;-59
2022/07/31 05:33:54;;;;;;;5.43;4.70;;;;;;;24.90;64.67;99121.91;5072523;28;20260;-60
2022/07/31 05:36:21;;;;;;;5.70;5.10;;;;;;;24.85;64.10;99113.41;5072471;28;20199;-60
2022/07/31 05:38:49;;;;;;;5.27;4.77;;;;;;;25.01;65.10;99119.63;5072404;28;20620;-60
2022/07/31 05:41:17;;;;;;;6.00;5.40;;;;;;;25.01;64.37;99085.44;5071588;28;20187;-60
2022/07/31 05:43:43;;;;;;;5.57;4.37;;;;;;;25.33;62.95;99114.56;5072023;28;20196;-60
2022/07/31 05:46:12;;;;;;;5.10;4.70;;;;;;;25.45;61.97;99116.59;5072399;28;20202;-61
2022/07/31 05:48:40;;;;;;;5.20;4.80;;;;;;;25.49;62.30;99113.75;5072167;28;20203;-60
2022/07/31 05:51:09;;;;;;;5.00;4.60;;;;;;;25.51;61.38;99116.31;5071388;28;20482;-60
2022/07/31 05:53:36;;;;;;;4.87;4.47;;;;;;;25.61;60.86;99115.78;5071849;28;20200;-60
2022/07/31 05:56:04;;;;;;;4.60;4.00;;;;;;;25.62;60.40;99093.81;5072001;28;20747;-60
2022/07/31 05:58:32;;;;;;;4.73;4.40;;;;;;;25.75;60.43;99112.44;5071676;28;20219;-60
2022/07/31 06:01:00;;;;;;;5.23;4.73;;;;;;;25.80;60.45;99108.63;5071988;28;20593;-60
2022/07/31 06:03:34;;;;;;;4.63;4.17;;;;;;;25.90;59.28;99110.78;5071800;28;20196;-60
2022/07/31 06:06:02;;;;;;;4.40;4.10;;;;;;;25.94;58.95;99113.19;5072053;28;20199;-60
2022/07/31 06:08:29;;;;;;;4.43;4.00;;;;;;;26.02;58.90;99115.41;5071954;28;20211;-60
2022/07/31 06:10:56;;;;;;;5.00;4.50;;;;;;;26.05;59.08;99104.72;5071664;28;20219;-59
2022/07/31 06:13:24;;;;;;;4.90;4.40;;;;;;;26.14;59.25;99107.75;5071361;28;21030;-60
2022/07/31 06:15:51;;;;;;;5.35;4.53;;;;;;;26.23;58.59;99106.41;5071442;28;20321;-59
2022/07/31 06:18:18;;;;;;;5.10;4.60;;;;;;;26.34;58.56;99114.59;5071192;28;20192;-60
2022/07/31 06:20:46;;;;;;;5.95;4.65;;;;;;;26.38;58.18;99113.47;5071206;28;20650;-60
2022/07/31 06:23:13;;;;;;;5.28;4.78;;;;;;;26.54;57.64;99122.25;5071137;28;20196;-60
2022/07/31 06:25:40;;;;;;;4.80;4.43;;;;;;;26.50;56.57;99107.56;5071161;28;20187;-60
2022/07/31 06:28:07;;;;;;;5.32;4.82;;;;;;;26.49;55.75;99105.84;5071336;28;20269;-60
2022/07/31 06:30:34;;;;;;;5.35;4.95;;;;;;;26.49;56.66;99115.53;5070971;28;20776;-60
2022/07/31 06:33:00;;;;;;;5.32;4.82;;;;;;;26.64;56.85;99119.97;5070973;28;20195;-60
2022/07/31 06:35:27;;;;;;;5.65;5.15;;;;;;;26.74;56.35;99119.38;5070931;28;20198;-59
2022/07/31 06:37:55;;;;;;;5.25;4.70;;;;;;;26.85;56.11;99117.03;5071151;28;20191;-59
2022/07/31 06:40:22;;;;;;;6.32;5.53;;;;;;;26.93;55.94;99106.06;5071220;28;20197;-59
2022/07/31 06:42:49;;;;;;;4.97;4.53;;;;;;;27.05;55.61;99109.78;5071245;28;20698;-59
2022/07/31 06:45:16;;;;;;;6.15;5.57;;;;;;;27.03;54.78;99103.75;5071004;28;20187;-60
2022/07/31 06:47:42;;;;;;;5.65;5.25;;;;;;;27.06;55.02;99108.88;5070884;28;20187;-60
2022/07/31 06:50:10;;;;;;;6.70;5.00;;;;;;;27.08;54.79;99115.75;5070737;28;20192;-60
2022/07/31 06:52:37;;;;;;;7.00;5.90;;;;;;;27.03;54.78;99111.66;5069223;28;20967;-60
2022/07/31 06:55:06;;;;;;;5.40;4.90;;;;;;;27.10;55.02;99113.00;5070240;28;20194;-60
2022/07/31 06:57:33;;;;;;;5.97;5.22;;;;;;;27.22;55.17;99109.69;5070197;28;20224;-60
2022/07/31 07:00:00;;;;;;;5.60;5.10;;;;;;;27.32;54.95;99105.56;5070520;28;20234;-60
2022/07/31 07:02:27;;;;;;;7.07;6.47;;;;;;;27.36;54.25;99113.19;5070092;28;20192;-60
2022/07/31 07:04:53;;;;;;;6.50;5.90;;;;;;;27.14;54.87;99104.81;5070119;28;20196;-60
2022/07/31 07:07:20;;;;;;;6.97;6.28;;;;;;;27.14;55.62;99112.72;5070566;28;20195;-60
2022/07/31 07:09:47;;;;;;;7.22;6.63;;;;;;;27.31;55.40;99112.63;5070029;28;20552;-60
2022/07/31 07:12:15;;;;;;;7.50;6.90;;;;;;;27.37;54.89;99116.69;5070003;28;20234;-60
2022/07/31 07:14:42;;;;;;;8.23;7.53;;;;;;;27.41;54.70;99103.25;5069840;28;20254;-61
2022/07/31 07:17:09;;;;;;;8.23;7.53;;;;;;;27.37;54.98;99106.13;5069873;28;20188;-60
2022/07/31 07:19:40;;;;;;;8.43;7.63;;;;;;;27.41;54.91;99108.53;5069982;28;20214;-60
2022/07/31 07:22:06;;;;;;;7.82;7.22;;;;;;;27.53;53.96;99105.19;5070016;28;20192;-61
2022/07/31 07:24:33;;;;;;;8.02;7.43;;;;;;;27.59;53.88;99114.53;5070048;28;20208;-60
2022/07/31 07:27:00;;;;;;;9.00;8.18;;;;;;;27.54;55.40;99106.03;5070019;28;20203;-60
2022/07/31 07:29:29;;;;;;;9.95;7.60;;;;;;;27.53;55.48;99110.47;5069472;28;20199;-60
2022/07/31 07:31:55;;;;;;;8.95;8.10;;;;;;;27.54;56.13;99106.03;5069678;28;20602;-60
2022/07/31 07:34:22;;;;;;;9.75;8.85;;;;;;;27.45;56.29;99104.78;5069863;28;20187;-60
2022/07/31 07:36:49;;;;;;;8.93;8.13;;;;;;;27.41;56.59;99100.63;5069843;28;20191;-60
2022/07/31 07:39:16;;;;;;;10.82;8.63;;;;;;;27.56;57.46;99098.00;5069444;28;20195;-60
2022/07/31 07:41:43;;;;;;;9.73;8.73;;;;;;;27.65;57.23;99100.97;5069407;28;20191;-59
2022/07/31 07:44:09;;;;;;;9.80;9.00;;;;;;;27.70;57.25;99098.06;5069418;28;20191;-59
2022/07/31 07:46:38;;;;;;;10.32;8.50;;;;;;;27.84;57.10;99106.84;5069437;28;20194;-59
2022/07/31 07:49:05;;;;;;;11.10;9.25;;;;;;;27.88;56.26;99110.16;5069579;28;20256;-60
2022/07/31 07:51:32;;;;;;;8.55;7.80;;;;;;;27.76;55.72;99101.19;5069678;28;20246;-60
2022/07/31 07:54:00;;;;;;;8.20;7.60;;;;;;;27.72;56.72;99096.16;5069608;28;20202;-60
2022/07/31 07:56:26;;;;;;;9.65;8.85;;;;;;;27.94;57.06;99102.72;5068426;28;20521;-60
2022/07/31 07:58:54;;;;;;;11.82;9.25;;;;;;;28.08;55.46;99096.63;5069125;28;20235;-59
2022/07/31 08:01:21;;;;;;;10.23;8.80;;;;;;;28.14;55.43;99088.31;5069168;28;20195;-60
2022/07/31 08:03:49;;;;;;;9.35;8.55;;;;;;;28.08;55.15;99083.41;5069270;28;20598;-60
2022/07/31 08:06:16;;;;;;;9.38;8.68;;;;;;;28.07;54.24;99076.44;5069504;28;20187;-60
2022/07/31 08:08:43;;;;;;;9.45;8.65;;;;;;;28.19;55.06;99088.03;5069402;28;20198;-60
2022/07/31 08:11:09;;;;;;;10.00;9.00;;;;;;;28.22;54.05;99091.31;5069049;28;20284;-60
2022/07/31 08:13:36;;;;;;;10.20;9.30;;;;;;;28.27;53.48;99094.53;5068662;28;20202;-60
2022/07/31 08:16:03;;;;;;;8.98;8.20;;;;;;;28.34;52.86;99095.00;5069104;28;20192;-60
2022/07/31 08:18:30;;;;;;;10.35;8.73;;;;;;;28.33;53.04;99090.66;5069178;28;20199;-60
2022/07/31 08:20:58;;;;;;;10.25;9.27;;;;;;;28.39;52.87;99096.41;5069005;28;20195;-60
2022/07/31 08:23:25;;;;;;;9.68;8.75;;;;;;;28.47;53.43;99085.34;5068746;28;20192;-60
2022/07/31 08:25:52;;;;;;;9.80;8.85;;;;;;;28.55;52.44;99088.38;5068658;28;20233;-60
2022/07/31 08:28:19;;;;;;;10.63;9.25;;;;;;;28.73;51.84;99084.59;5068953;28;20208;-60
2022/07/31 08:30:46;;;;;;;9.25;8.35;;;;;;;28.65;52.07;99090.34;5069101;28;20666;-60
2022/07/31 08:33:13;;;;;;;9.13;8.32;;;;;;;28.65;50.57;99084.25;5068881;28;20219;-68
2022/07/31 08:35:39;;;;;;;9.20;8.35;;;;;;;28.80;51.33;99077.09;5068932;28;20261;-66
2022/07/31 08:38:08;;;;;;;9.20;8.50;;;;;;;28.87;50.88;99081.06;5068886;28;20210;-68
2022/07/31 08:40:38;;;;;;;9.80;8.90;;;;;;;29.06;50.96;99073.63;5069114;28;20272;-67
2022/07/31 08:43:05;;;;;;;9.55;8.65;;;;;;;29.20;49.08;99086.75;5069019;28;20184;-68
2022/07/31 08:45:32;;;;;;;10.15;9.23;;;;;;;29.24;48.92;99083.88;5068817;28;20196;-67
2022/07/31 08:48:00;;;;;;;9.38;8.65;;;;;;;29.30;48.96;99073.81;5069112;28;20175;-67
2022/07/31 08:50:29;;;;;;;10.43;9.50;;;;;;;29.26;50.31;99078.44;5068934;28;20192;-68
2022/07/31 08:52:56;;;;;;;10.68;9.77;;;;;;;29.40;49.06;99069.59;5068793;28;20222;-66
2022/07/31 08:55:25;;;;;;;10.13;9.32;;;;;;;29.44;49.48;99073.75;5068980;28;20187;-67
2022/07/31 08:57:51;;;;;;;10.80;9.87;;;;;;;29.50;49.02;99079.44;5068836;28;21000;-67
2022/07/31 09:00:21;;;;;;;9.60;8.80;;;;;;;29.47;50.03;99066.44;5069331;28;20207;-67
2022/07/31 09:02:48;;;;;;;10.88;9.80;;;;;;;29.66;48.63;99064.25;5068771;28;20191;-67
2022/07/31 09:05:15;;;;;;;10.32;9.45;;;;;;;29.77;47.66;99072.31;5068754;28;20191;-68
2022/07/31 09:07:42;;;;;;;10.10;9.20;;;;;;;29.81;47.76;99065.00;5068942;28;20198;-68
2022/07/31 09:10:20;;;;;;;10.48;9.57;;;;;;;29.90;47.53;99063.53;5068463;28;20191;-69
2022/07/31 09:12:48;;;;;;;10.45;9.50;;;;;;;29.78;47.51;99067.81;5069142;28;20215;-67
2022/07/31 09:15:23;;;;;;;10.50;9.48;;;;;;;29.90;47.35;99064.38;5068962;28;20192;-68
2022/07/31 09:17:51;;;;;;;11.20;10.13;;;;;;;29.91;47.69;99055.47;5072665;28;20203;-68
2022/07/31 09:20:19;;;;;;;10.75;9.75;;;;;;;29.97;47.75;99049.72;5072014;28;20188;-68
2022/07/31 09:22:47;;;;;;;10.63;9.73;;;;;;;30.09;46.77;99059.47;5071786;28;20444;-68
2022/07/31 09:25:17;;;;;;;9.95;9.15;;;;;;;30.16;46.16;99036.06;5072208;28;20192;-67
2022/07/31 09:27:45;;;;;;;9.63;8.73;;;;;;;30.21;44.28;99049.81;5071912;28;20620;-68
2022/07/31 09:30:14;;;;;;;10.40;9.50;;;;;;;30.23;45.89;99043.44;5071758;28;20195;-67
2022/07/31 09:32:42;;;;;;;11.07;9.73;;;;;;;30.37;46.88;99029.25;5071611;28;20208;-68
2022/07/31 09:35:11;;;;;;;11.82;10.63;;;;;;;30.45;46.66;99036.63;5071544;28;20188;-60
2022/07/31 09:37:38;;;;;;;10.43;9.40;;;;;;;30.30;46.12;99034.09;5071495;28;20630;-61
2022/07/31 09:40:08;;;;;;;10.65;9.70;;;;;;;30.39;45.81;99040.56;5071613;28;20605;-60
2022/07/31 09:42:41;;;;;;;10.43;9.50;;;;;;;30.30;45.61;99023.50;5071409;28;20191;-60
2022/07/31 09:45:24;;;;;;;9.20;8.40;;;;;;;30.25;44.64;99038.03;5071628;28;20199;-61
2022/07/31 09:48:04;;;;;;;9.45;8.57;;;;;;;30.32;44.65;99031.34;5070374;28;20201;-61
2022/07/31 09:50:31;;;;;;;9.00;8.20;;;;;;;30.53;44.00;99023.66;5071628;28;20776;-61
2022/07/31 09:53:00;;;;;;;9.90;9.00;;;;;;;30.70;43.74;99021.50;5071456;28;20269;-60
2022/07/31 09:55:27;;;;;;;8.85;7.88;;;;;;;30.71;41.76;99017.84;5071130;28;20249;-60
2022/07/31 09:57:56;;;;;;;8.55;7.93;;;;;;;30.76;41.85;99005.13;5071124;28;20238;-60
2022/07/31 10:00:26;;;;;;;8.63;7.80;;;;;;;30.86;41.33;99007.94;5071072;28;20444;-61
2022/07/31 10:02:54;;;;;;;8.52;7.70;;;;;;;30.86;40.79;99006.13;5070957;28;20195;-60
2022/07/31 10:05:23;;;;;;;8.05;7.43;;;;;;;30.84;40.90;99002.75;5070880;28;20196;-59
2022/07/31 10:07:51;;;;;;;8.75;7.93;;;;;;;30.87;40.76;99001.66;5071168;28;20197;-60
2022/07/31 10:10:18;;;;;;;8.70;7.75;;;;;;;30.78;40.72;99007.66;5071079;28;20666;-60
2022/07/31 10:12:50;;;;;;;7.32;6.72;;;;;;;30.70;40.66;98979.03;5071369;28;20219;-60
2022/07/31 10:15:18;;;;;;;7.38;6.70;;;;;;;30.87;40.20;98989.25;5071122;28;20187;-60
2022/07/31 10:17:51;;;;;;;7.65;6.53;;;;;;;31.03;39.73;98985.47;5071109;28;20191;-68
2022/07/31 10:20:21;;;;;;;6.82;6.32;;;;;;;30.82;39.60;98967.50;5071397;28;20202;-66
2022/07/31 10:22:50;;;;;;;6.32;5.82;;;;;;;31.02;39.75;98984.63;5071296;28;20237;-67
2022/07/31 10:25:21;;;;;;;7.20;6.50;;;;;;;31.10;39.56;98986.69;5070704;28;20434;-68
2022/07/31 10:27:49;;;;;;;7.10;6.50;;;;;;;31.15;38.72;98979.25;5071383;28;20196;-68
2022/07/31 10:30:16;;;;;;;7.60;6.10;;;;;;;31.34;38.37;98980.34;5071303;28;20195;-67
2022/07/31 10:32:43;;;;;;;6.22;5.70;;;;;;;31.32;38.04;98982.28;5071352;28;20226;-67
2022/07/31 10:35:12;;;;;;;7.30;5.30;;;;;;;31.35;39.12;98968.78;5070708;28;20575;-67
2022/07/31 10:37:43;;;;;;;5.35;4.95;;;;;;;31.52;37.43;98971.00;5070841;28;20217;-67
2022/07/31 10:40:22;;;;;;;5.63;5.22;;;;;;;31.54;36.90;98971.72;5070320;28;20191;-68
2022/07/31 10:42:55;;;;;;;5.68;5.20;;;;;;;31.50;37.25;98964.13;5070145;28;20191;-67
2022/07/31 10:45:23;;;;;;;5.65;5.20;;;;;;;31.44;37.34;98969.88;5070043;28;20199;-67
2022/07/31 10:47:56;;;;;;;5.53;5.05;;;;;;;31.55;37.41;98961.94;5070338;28;20282;-68
2022/07/31 10:50:28;;;;;;;5.90;5.40;;;;;;;31.59;36.92;98962.56;5070991;28;20277;-67
2022/07/31 10:52:55;;;;;;;5.55;5.13;;;;;;;31.71;37.01;98961.59;5070354;28;20250;-67
2022/07/31 10:55:24;;;;;;;5.85;5.38;;;;;;;31.61;36.27;98964.13;5070383;28;20207;-67
2022/07/31 10:57:51;;;;;;;6.10;5.60;;;;;;;31.45;36.54;98959.13;5070349;28;20227;-66
2022/07/31 11:00:21;;;;;;;5.82;5.32;;;;;;;31.50;36.76;98959.66;5070345;28;20287;-67
2022/07/31 11:02:48;;;;;;;5.43;5.03;;;;;;;31.48;36.55;98958.91;5070922;28;20520;-67
2022/07/31 11:05:20;;;;;;;5.78;5.28;;;;;;;31.46;35.78;98963.50;5071012;28;20264;-68
2022/07/31 11:07:59;;;;;;;5.63;4.93;;;;;;;31.48;35.84;98955.44;5070225;28;20641;-66
2022/07/31 11:10:26;;;;;;;6.25;5.00;;;;;;;31.54;37.66;98957.59;5070385;28;20658;-67
2022/07/31 11:13:00;;;;;;;5.70;5.30;;;;;;;31.59;37.68;98949.28;5070238;28;20227;-67
2022/07/31 11:15:27;;;;;;;5.18;4.88;;;;;;;31.81;37.23;98958.06;5070194;28;20199;-67
2022/07/31 11:17:54;;;;;;;5.00;4.60;;;;;;;31.93;35.02;98965.09;5070326;28;20261;-66
2022/07/31 11:20:24;;;;;;;5.55;4.43;;;;;;;31.86;35.23;98936.47;5070088;28;20188;-66
2022/07/31 11:23:02;;;;;;;4.45;4.15;;;;;;;31.88;35.02;98946.03;5069969;28;20187;-66
2022/07/31 11:25:32;;;;;;;5.03;3.97;;;;;;;31.84;33.61;98951.69;5070179;28;20218;-68
2022/07/31 11:28:10;;;;;;;4.30;4.00;;;;;;;31.87;33.98;98941.66;5069622;28;20445;-67
2022/07/31 11:30:48;;;;;;;5.03;3.60;;;;;;;31.94;33.90;98937.56;5069945;28;20191;-66
2022/07/31 11:33:15;;;;;;;4.90;4.30;;;;;;;31.97;33.29;98932.00;5069927;28;20339;-68
2022/07/31 11:35:42;;;;;;;5.97;4.35;;;;;;;32.13;33.78;98941.41;5070001;28;20188;-68
2022/07/31 11:38:10;;;;;;;4.90;4.50;;;;;;;32.23;33.82;98945.00;5069747;28;20659;-68